createdAt,value
2018-06-03T00:02:01.651Z,6.67
2018-06-03T00:04:28.030Z,6.00
2018-06-03T00:06:54.431Z,7.07
2018-06-03T00:09:20.849Z,6.23
2018-06-03T00:11:47.232Z,6.80
2018-06-03T00:14:13.641Z,6.37
2018-06-03T00:16:40.037Z,5.67
2018-06-03T00:19:07.173Z,6.30
2018-06-03T00:21:41.400Z,6.43
2018-06-03T00:24:07.818Z,6.97
2018-06-03T00:26:34.224Z,6.53
2018-06-03T00:29:00.639Z,7.43
2018-06-03T00:31:27.055Z,6.73
2018-06-03T00:33:53.456Z,7.23
2018-06-03T00:36:32.714Z,6.43
2018-06-03T00:38:59.112Z,6.73
2018-06-03T00:41:25.509Z,7.23
2018-06-03T00:43:51.883Z,5.87
2018-06-03T00:46:18.263Z,7.03
2018-06-03T00:48:44.648Z,6.57
2018-06-03T00:51:11.791Z,8.27
2018-06-03T00:53:38.193Z,7.73
2018-06-03T00:56:04.632Z,7.50
2018-06-03T00:58:31.034Z,7.70
2018-06-03T01:00:57.452Z,7.20
2018-06-03T01:03:23.844Z,6.63
2018-06-03T01:05:50.295Z,6.60
2018-06-03T01:08:17.438Z,6.90
2018-06-03T01:10:43.842Z,7.03
2018-06-03T01:13:10.253Z,7.63
2018-06-03T01:15:36.659Z,6.37
2018-06-03T01:18:03.792Z,7.67
2018-06-03T01:20:30.918Z,8.80
2018-06-03T01:22:57.404Z,6.80
2018-06-03T01:25:23.804Z,7.87
2018-06-03T01:27:50.935Z,6.67
2018-06-03T01:30:17.320Z,6.77
2018-06-03T01:32:43.744Z,7.33
2018-06-03T01:35:10.135Z,7.50
2018-06-03T01:37:36.518Z,7.70
2018-06-03T01:40:03.119Z,7.67
2018-06-03T01:42:30.280Z,7.30
2018-06-03T01:44:57.419Z,7.03
2018-06-03T01:47:24.598Z,7.73
2018-06-03T01:49:50.999Z,7.37
2018-06-03T01:52:18.131Z,7.67
2018-06-03T01:54:44.520Z,7.27
2018-06-03T01:57:10.927Z,8.10
2018-06-03T01:59:38.049Z,7.47
2018-06-03T02:02:04.443Z,7.47
2018-06-03T02:04:30.819Z,6.93
2018-06-03T02:06:57.231Z,7.80
2018-06-03T02:09:23.631Z,6.80
2018-06-03T02:11:50.023Z,6.77
2018-06-03T02:14:16.421Z,6.40
2018-06-03T02:16:42.798Z,8.70
2018-06-03T02:19:09.161Z,7.67
2018-06-03T02:21:35.546Z,7.77
2018-06-03T02:24:01.947Z,8.07
2018-06-03T02:26:28.470Z,6.97
2018-06-03T02:28:54.859Z,7.60
2018-06-03T02:31:21.997Z,6.70
2018-06-03T02:33:48.657Z,7.23
2018-06-03T02:36:15.083Z,6.90
2018-06-03T02:38:42.222Z,7.00
2018-06-03T02:41:10.791Z,8.67
2018-06-03T02:43:38.674Z,8.07
2018-06-03T02:46:05.820Z,8.47
2018-06-03T02:48:32.979Z,7.40
2018-06-03T02:50:59.379Z,7.93
2018-06-03T02:53:26.031Z,7.80
2018-06-03T02:55:52.440Z,8.30
2018-06-03T02:58:18.833Z,7.80
2018-06-03T03:00:45.964Z,7.00
2018-06-03T03:03:12.395Z,6.77
2018-06-03T03:05:38.802Z,6.03
2018-06-03T03:08:05.210Z,6.77
2018-06-03T03:10:31.617Z,6.30
2018-06-03T03:12:58.016Z,7.53
2018-06-03T03:15:25.179Z,7.07
2018-06-03T03:17:52.360Z,7.60
2018-06-03T03:20:18.773Z,5.87
2018-06-03T03:22:45.908Z,7.70
2018-06-03T03:25:12.296Z,8.87
2018-06-03T03:27:38.758Z,6.30
2018-06-03T03:30:05.208Z,6.37
2018-06-03T03:32:33.092Z,7.17
2018-06-03T03:35:00.214Z,7.30
2018-06-03T03:37:26.613Z,8.00
2018-06-03T03:39:52.992Z,7.90
2018-06-03T03:42:19.378Z,7.50
2018-06-03T03:44:45.787Z,8.60
2018-06-03T03:47:12.229Z,7.40
2018-06-03T03:49:38.624Z,7.23
2018-06-03T03:52:05.022Z,7.93
2018-06-03T03:54:31.416Z,7.73
2018-06-03T03:56:57.804Z,7.60
2018-06-03T03:59:24.194Z,7.00
2018-06-03T04:01:50.737Z,8.07
2018-06-03T04:04:17.863Z,7.33
2018-06-03T04:06:44.264Z,8.60
2018-06-03T04:09:10.865Z,7.10
2018-06-03T04:11:37.256Z,8.87
2018-06-03T04:14:04.410Z,7.10
2018-06-03T04:16:30.804Z,7.87
2018-06-03T04:18:57.203Z,8.43
2018-06-03T04:21:23.594Z,8.50
2018-06-03T04:23:50.718Z,8.80
2018-06-03T04:26:17.109Z,8.77
2018-06-03T04:28:43.511Z,9.50
2018-06-03T04:31:10.653Z,8.80
2018-06-03T04:33:37.994Z,9.03
2018-06-03T04:36:04.384Z,10.40
2018-06-03T04:38:30.795Z,8.60
2018-06-03T04:40:57.232Z,10.03
2018-06-03T04:43:23.615Z,10.00
2018-06-03T04:45:50.007Z,8.60
2018-06-03T04:48:16.396Z,9.40
2018-06-03T04:50:43.531Z,9.20
2018-06-03T04:53:09.919Z,9.20
2018-06-03T04:55:36.334Z,10.13
2018-06-03T04:58:03.471Z,10.03
2018-06-03T05:00:30.590Z,9.87
2018-06-03T05:02:56.971Z,10.17
2018-06-03T05:05:23.358Z,10.70
2018-06-03T05:07:49.870Z,10.50
2018-06-03T05:10:16.294Z,9.63
2018-06-03T05:12:42.668Z,8.67
2018-06-03T05:15:09.080Z,10.33
2018-06-03T05:17:35.477Z,9.93
2018-06-03T05:20:01.870Z,9.77
2018-06-03T05:22:28.260Z,9.90
2018-06-03T05:24:54.648Z,10.43
2018-06-03T05:27:21.841Z,17.30
2018-06-03T05:29:48.257Z,12.60
2018-06-03T05:32:14.658Z,11.20
2018-06-03T05:34:41.870Z,11.73
2018-06-03T05:37:08.273Z,11.00
2018-06-03T05:39:34.664Z,12.67
2018-06-03T05:42:01.059Z,10.80
2018-06-03T05:44:27.443Z,11.20
2018-06-03T05:46:54.834Z,11.57
2018-06-03T05:49:21.229Z,10.73
2018-06-03T05:51:48.357Z,10.67
2018-06-03T05:54:14.745Z,10.20
2018-06-03T05:56:41.133Z,10.53
2018-06-03T05:59:08.288Z,12.70
2018-06-03T06:01:34.681Z,11.20
2018-06-03T06:04:01.073Z,9.13
2018-06-03T06:06:27.466Z,9.50
2018-06-03T06:08:53.913Z,10.50
2018-06-03T06:11:21.795Z,9.60
2018-06-03T06:13:48.945Z,9.63
2018-06-03T06:16:16.117Z,11.17
2018-06-03T06:18:42.524Z,11.13
2018-06-03T06:21:09.688Z,11.63
2018-06-03T06:23:36.831Z,11.20
2018-06-03T06:26:03.995Z,11.80
2018-06-03T06:28:30.387Z,11.07
2018-06-03T06:30:58.262Z,11.60
2018-06-03T06:33:25.485Z,12.73
2018-06-03T06:35:51.974Z,12.27
2018-06-03T06:38:18.391Z,12.90
2018-06-03T06:40:45.565Z,11.00
2018-06-03T06:43:12.690Z,12.20
2018-06-03T06:45:39.841Z,11.83
2018-06-03T06:48:07.028Z,13.60
2018-06-03T06:50:33.435Z,11.20
2018-06-03T06:53:00.649Z,11.47
2018-06-03T06:55:27.081Z,12.17
2018-06-03T06:57:53.474Z,12.07
2018-06-03T07:00:19.884Z,11.10
2018-06-03T07:02:47.024Z,11.83
2018-06-03T07:05:14.165Z,10.50
2018-06-03T07:07:41.313Z,10.90
2018-06-03T07:10:07.797Z,11.57
2018-06-03T07:12:34.960Z,10.10
2018-06-03T07:15:01.371Z,9.30
2018-06-03T07:17:27.792Z,10.20
2018-06-03T07:19:54.199Z,9.30
2018-06-03T07:22:20.599Z,9.40
2018-06-03T07:24:47.001Z,10.73
2018-06-03T07:27:13.376Z,10.40
2018-06-03T07:29:39.775Z,9.00
2018-06-03T07:32:06.960Z,9.67
2018-06-03T07:34:33.358Z,8.60
2018-06-03T07:36:59.771Z,6.93
2018-06-03T07:39:26.911Z,8.80
2018-06-03T07:41:54.075Z,8.80
2018-06-03T07:44:20.502Z,8.80
2018-06-03T07:46:47.649Z,7.73
2018-06-03T07:49:14.788Z,8.40
2018-06-03T07:51:42.681Z,8.10
2018-06-03T07:54:09.823Z,7.57
2018-06-03T07:56:36.962Z,7.43
2018-06-03T07:59:04.151Z,7.20
2018-06-03T08:01:30.554Z,7.50
2018-06-03T08:03:57.007Z,8.13
2018-06-03T08:06:23.425Z,7.37
2018-06-03T08:08:49.815Z,7.70
2018-06-03T08:11:16.263Z,7.50
2018-06-03T08:13:42.658Z,6.80
2018-06-03T08:16:09.072Z,8.10
2018-06-03T08:18:35.463Z,6.60
2018-06-03T08:21:02.607Z,7.40
2018-06-03T08:23:28.994Z,7.07
2018-06-03T08:25:55.389Z,6.97
2018-06-03T08:28:22.531Z,6.93
2018-06-03T08:30:49.671Z,7.23
2018-06-03T08:33:17.543Z,6.80
2018-06-03T08:35:43.921Z,6.70
2018-06-03T08:38:10.334Z,7.53
2018-06-03T08:40:36.728Z,6.70
2018-06-03T08:43:04.613Z,6.77
2018-06-03T08:45:31.750Z,6.43
2018-06-03T08:47:58.137Z,6.90
2018-06-03T08:50:24.518Z,6.73
2018-06-03T08:52:51.678Z,6.17
2018-06-03T08:55:18.053Z,6.40
2018-06-03T08:57:44.468Z,6.70
2018-06-03T09:00:10.874Z,6.27
2018-06-03T09:02:37.338Z,6.47
2018-06-03T09:05:03.831Z,6.77
2018-06-03T09:07:31.688Z,6.90
2018-06-03T09:09:58.099Z,5.77
2018-06-03T09:12:24.502Z,6.80
2018-06-03T09:14:50.964Z,5.50
2018-06-03T09:17:17.467Z,5.90
2018-06-03T09:19:43.881Z,6.73
2018-06-03T09:22:11.011Z,6.00
2018-06-03T09:24:37.414Z,6.17
2018-06-03T09:27:03.803Z,5.63
2018-06-03T09:29:30.958Z,5.10
2018-06-03T09:31:58.205Z,4.70
2018-06-03T09:34:25.410Z,5.23
2018-06-03T09:36:51.809Z,5.50
2018-06-03T09:39:18.203Z,5.00
2018-06-03T09:41:45.400Z,5.07
2018-06-03T09:44:11.785Z,5.30
2018-06-03T09:46:39.658Z,5.60
2018-06-03T09:49:06.846Z,5.43
2018-06-03T09:51:33.232Z,5.07
2018-06-03T09:53:59.636Z,6.30
2018-06-03T09:56:26.023Z,5.03
2018-06-03T09:58:53.157Z,5.73
2018-06-03T10:01:19.530Z,4.90
2018-06-03T10:04:22.200Z,5.03
2018-06-03T10:06:50.002Z,4.63
2018-06-03T10:09:17.796Z,5.43
2018-06-03T10:11:46.284Z,4.80
2018-06-03T10:14:14.124Z,5.13
2018-06-03T10:16:41.926Z,5.00
2018-06-03T10:19:09.742Z,4.93
2018-06-03T10:21:39.707Z,5.20
2018-06-03T10:24:07.503Z,5.13
2018-06-03T10:26:35.414Z,4.97
2018-06-03T10:29:03.229Z,5.30
2018-06-03T10:31:31.015Z,5.10
2018-06-03T10:33:58.804Z,5.03
2018-06-03T10:36:26.627Z,5.43
2018-06-03T10:38:54.429Z,5.87
2018-06-03T10:41:22.808Z,5.50
2018-06-03T10:43:50.626Z,5.90
2018-06-03T10:46:18.373Z,5.07
2018-06-03T10:48:46.043Z,4.97
2018-06-03T10:51:13.834Z,4.83
2018-06-03T10:53:41.672Z,5.27
2018-06-03T10:56:09.513Z,5.40
2018-06-03T10:58:38.294Z,5.20
2018-06-03T11:01:06.788Z,6.37
2018-06-03T11:03:34.734Z,6.87
2018-06-03T11:06:03.575Z,6.90
2018-06-03T11:08:31.438Z,7.30
2018-06-03T11:10:59.328Z,6.13
2018-06-03T11:13:27.168Z,6.70
2018-06-03T11:15:54.870Z,5.50
2018-06-03T11:18:22.773Z,6.17
2018-06-03T11:20:50.600Z,6.10
2018-06-03T11:23:18.575Z,5.90
2018-06-03T11:25:46.401Z,6.27
2018-06-03T11:28:14.885Z,5.50
2018-06-03T11:30:43.222Z,6.47
2018-06-03T11:33:11.650Z,6.50
2018-06-03T11:35:39.327Z,5.13
2018-06-03T11:38:07.123Z,5.17
2018-06-03T11:40:35.654Z,5.27
2018-06-03T11:43:03.540Z,5.07
2018-06-03T11:45:32.138Z,6.03
2018-06-03T11:48:00.007Z,5.20
2018-06-03T11:50:27.802Z,5.43
2018-06-03T11:52:55.589Z,6.23
2018-06-03T11:55:23.391Z,6.43
2018-06-03T11:58:01.252Z,6.07
2018-06-03T12:00:29.036Z,5.67
2018-06-03T12:02:56.702Z,6.60
2018-06-03T12:05:24.367Z,4.80
2018-06-03T12:07:52.029Z,4.83
2018-06-03T12:10:19.687Z,5.50
2018-06-03T12:12:47.397Z,5.00
2018-06-03T12:15:15.193Z,5.40
2018-06-03T12:17:43.008Z,4.43
2018-06-03T12:20:10.809Z,5.10
2018-06-03T12:22:40.004Z,4.20
2018-06-03T12:25:09.091Z,4.83
2018-06-03T12:27:37.420Z,4.23
2018-06-03T12:30:05.228Z,4.40
2018-06-03T12:32:33.028Z,4.10
2018-06-03T12:35:00.695Z,4.70
2018-06-03T12:37:28.466Z,4.50
2018-06-03T12:39:56.271Z,4.37
2018-06-03T12:42:24.431Z,4.53
2018-06-03T12:44:52.246Z,4.77
2018-06-03T12:47:20.636Z,5.07
2018-06-03T12:49:48.438Z,4.90
2018-06-03T12:52:16.102Z,4.63
2018-06-03T12:54:43.889Z,5.10
2018-06-03T12:57:11.684Z,5.30
2018-06-03T12:59:39.474Z,4.63
2018-06-03T13:02:08.490Z,4.43
2018-06-03T13:04:36.750Z,4.73
2018-06-03T13:07:04.405Z,4.33
2018-06-03T13:09:32.061Z,5.17
2018-06-03T13:12:00.713Z,5.17
2018-06-03T13:14:30.740Z,4.80
2018-06-03T13:16:58.518Z,5.43
2018-06-03T13:19:26.298Z,6.27
2018-06-03T13:21:54.094Z,6.93
2018-06-03T13:24:21.746Z,6.00
2018-06-03T13:26:49.524Z,7.40
2018-06-03T13:29:17.303Z,6.50
2018-06-03T13:31:45.807Z,7.10
2018-06-03T13:34:13.579Z,5.80
2018-06-03T13:36:41.365Z,6.60
2018-06-03T13:39:09.033Z,6.60
2018-06-03T13:41:36.815Z,6.00
2018-06-03T13:44:04.754Z,6.50
2018-06-03T13:46:32.649Z,6.80
2018-06-03T13:49:00.335Z,6.17
2018-06-03T13:51:28.191Z,5.70
2018-06-03T13:53:55.925Z,6.00
2018-06-03T13:56:23.579Z,5.57
2018-06-03T13:58:51.369Z,6.17
2018-06-03T14:01:19.029Z,5.67
2018-06-03T14:03:46.684Z,5.40
2018-06-03T14:06:14.470Z,5.13
2018-06-03T14:08:42.267Z,5.13
2018-06-03T14:11:10.060Z,4.97
2018-06-03T14:13:37.881Z,6.00
2018-06-03T14:16:05.672Z,6.30
2018-06-03T14:18:33.451Z,6.40
2018-06-03T14:21:01.300Z,6.40
2018-06-03T14:23:29.145Z,6.87
2018-06-03T14:25:56.924Z,6.30
2018-06-03T14:28:24.764Z,6.60
2018-06-03T14:30:53.119Z,6.63
2018-06-03T14:33:20.783Z,6.20
2018-06-03T14:35:48.459Z,6.70
2018-06-03T14:38:16.130Z,6.70
2018-06-03T14:40:43.904Z,6.80
2018-06-03T14:43:12.486Z,5.80
2018-06-03T14:45:40.256Z,5.90
2018-06-03T14:48:08.062Z,6.23
2018-06-03T14:50:35.883Z,5.60
2018-06-03T14:53:03.569Z,5.83
2018-06-03T14:55:31.417Z,6.27
2018-06-03T14:57:59.217Z,6.17
2018-06-03T15:00:26.958Z,6.10
2018-06-03T15:02:54.618Z,6.10
2018-06-03T15:05:22.539Z,5.83
2018-06-03T15:07:50.321Z,6.10
2018-06-03T15:10:18.135Z,6.23
2018-06-03T15:12:46.521Z,7.23
2018-06-03T15:15:14.164Z,6.43
2018-06-03T15:17:42.421Z,7.17
2018-06-03T15:20:10.200Z,6.80
2018-06-03T15:22:38.020Z,7.00
2018-06-03T15:25:06.309Z,6.97
2018-06-03T15:27:34.107Z,5.90
2018-06-03T15:30:01.889Z,7.80
2018-06-03T15:32:29.673Z,7.30
2018-06-03T15:34:57.366Z,6.63
2018-06-03T15:37:25.021Z,7.60
2018-06-03T15:39:52.912Z,7.97
2018-06-03T15:42:20.699Z,8.23
2018-06-03T15:44:48.475Z,7.57
2018-06-03T15:47:16.263Z,7.60
2018-06-03T15:49:44.047Z,8.30
2018-06-03T15:52:11.842Z,8.20
2018-06-03T15:54:39.623Z,7.63
2018-06-03T15:57:07.471Z,8.13
2018-06-03T15:59:35.138Z,8.40
2018-06-03T16:02:02.818Z,8.50
2018-06-03T16:04:30.618Z,7.13
2018-06-03T16:06:58.393Z,7.73
2018-06-03T16:09:26.176Z,7.93
2018-06-03T16:11:53.840Z,7.77
2018-06-03T16:14:21.607Z,7.57
2018-06-03T16:16:49.565Z,6.83
2018-06-03T16:19:17.365Z,8.00
2018-06-03T16:21:45.669Z,7.90
2018-06-03T16:24:13.447Z,8.47
2018-06-03T16:26:41.230Z,7.73
2018-06-03T16:29:08.989Z,7.53
2018-06-03T16:31:36.826Z,7.87
2018-06-03T16:34:04.422Z,7.77
2018-06-03T16:36:32.212Z,8.10
2018-06-03T16:38:59.870Z,7.20
2018-06-03T16:41:27.527Z,8.13
2018-06-03T16:43:55.183Z,8.03
2018-06-03T16:46:22.972Z,7.53
2018-06-03T16:48:50.869Z,8.03
2018-06-03T16:51:18.748Z,7.67
2018-06-03T16:53:46.532Z,8.27
2018-06-03T16:56:14.332Z,8.93
2018-06-03T16:58:41.986Z,7.73
2018-06-03T17:01:09.700Z,7.83
2018-06-03T17:03:38.093Z,8.33
2018-06-03T17:06:05.925Z,7.83
2018-06-03T17:08:33.754Z,8.13
2018-06-03T17:11:01.429Z,8.63
2018-06-03T17:13:29.958Z,8.90
2018-06-03T17:15:57.759Z,9.73
2018-06-03T17:18:25.523Z,8.87
2018-06-03T17:20:53.303Z,7.23
2018-06-03T17:23:20.955Z,8.27
2018-06-03T17:25:48.743Z,7.90
2018-06-03T17:28:16.515Z,8.00
2018-06-03T17:30:44.292Z,8.67
2018-06-03T17:33:12.732Z,8.73
2018-06-03T17:35:40.542Z,8.33
2018-06-03T17:38:08.322Z,8.77
2018-06-03T17:40:36.110Z,9.17
2018-06-03T17:43:03.978Z,8.60
2018-06-03T17:45:31.664Z,7.80
2018-06-03T17:47:59.310Z,8.83
2018-06-03T17:50:27.083Z,9.40
2018-06-03T17:52:54.847Z,9.63
2018-06-03T17:55:22.623Z,8.60
2018-06-03T17:57:50.276Z,9.70
2018-06-03T18:00:17.963Z,8.37
2018-06-03T18:02:45.823Z,8.70
2018-06-03T18:05:13.621Z,9.23
2018-06-03T18:07:41.890Z,10.13
2018-06-03T18:10:09.695Z,9.10
2018-06-03T18:12:37.477Z,11.00
2018-06-03T18:15:05.315Z,11.17
2018-06-03T18:17:33.121Z,10.07
2018-06-03T18:20:01.791Z,9.60
2018-06-03T18:22:29.607Z,9.83
2018-06-03T18:24:57.415Z,10.10
2018-06-03T18:27:25.087Z,9.63
2018-06-03T18:29:52.893Z,10.00
2018-06-03T18:32:20.731Z,9.10
2018-06-03T18:34:48.352Z,10.67
2018-06-03T18:37:16.149Z,10.90
2018-06-03T18:39:43.950Z,10.90
2018-06-03T18:42:11.780Z,9.80
2018-06-03T18:44:39.456Z,10.37
2018-06-03T18:47:07.251Z,10.87
2018-06-03T18:49:35.036Z,9.90
2018-06-03T18:52:02.825Z,10.40
2018-06-03T18:54:30.878Z,9.97
2018-06-03T18:56:59.192Z,11.47
2018-06-03T18:59:27.691Z,12.07
2018-06-03T19:01:55.468Z,12.30
2018-06-03T19:04:24.277Z,10.33
2018-06-03T19:06:52.177Z,10.20
2018-06-03T19:09:19.993Z,11.80
2018-06-03T19:11:47.840Z,11.70
2018-06-03T19:14:15.667Z,13.47
2018-06-03T19:16:43.447Z,13.13
2018-06-03T19:19:11.137Z,12.70
2018-06-03T19:21:39.049Z,11.60
2018-06-03T19:24:07.338Z,11.37
2018-06-03T19:26:35.256Z,11.40
2018-06-03T19:29:03.070Z,11.10
2018-06-03T19:31:31.540Z,11.20
2018-06-03T19:33:59.359Z,12.17
2018-06-03T19:36:27.138Z,13.40
2018-06-03T19:38:54.928Z,13.00
2018-06-03T19:41:22.735Z,12.20
2018-06-03T19:43:50.421Z,12.87
2018-06-03T19:46:18.305Z,13.50
2018-06-03T19:48:46.140Z,12.53
2018-06-03T19:51:13.828Z,13.60
2018-06-03T19:53:41.718Z,12.97
2018-06-03T19:56:09.516Z,13.63
2018-06-03T19:58:37.317Z,14.83
2018-06-03T20:01:05.100Z,12.50
2018-06-03T20:03:32.885Z,13.23
2018-06-03T20:06:00.711Z,13.40
2018-06-03T20:08:28.484Z,13.50
2018-06-03T20:10:56.287Z,13.43
2018-06-03T20:13:24.086Z,13.20
2018-06-03T20:15:51.752Z,12.90
2018-06-03T20:18:19.837Z,12.90
2018-06-03T20:20:47.619Z,13.03
2018-06-03T20:23:15.467Z,13.73
2018-06-03T20:25:43.258Z,13.80
2018-06-03T20:28:11.041Z,15.03
2018-06-03T20:30:38.835Z,14.00
2018-06-03T20:33:06.614Z,14.50
2018-06-03T20:35:35.153Z,12.93
2018-06-03T20:38:02.974Z,14.07
2018-06-03T20:40:30.763Z,14.50
2018-06-03T20:42:58.545Z,13.60
2018-06-03T20:45:26.332Z,16.00
2018-06-03T20:47:54.768Z,13.90
2018-06-03T20:50:23.395Z,15.67
2018-06-03T20:52:51.181Z,14.83
2018-06-03T20:55:18.854Z,12.80
2018-06-03T20:57:46.524Z,14.83
2018-06-03T21:00:14.776Z,13.97
2018-06-03T21:02:42.448Z,13.17
2018-06-03T21:05:10.123Z,16.23
2018-06-03T21:07:37.791Z,14.10
2018-06-03T21:10:05.664Z,13.70
2018-06-03T21:12:33.449Z,12.50
2018-06-03T21:15:01.300Z,12.60
2018-06-03T21:17:29.128Z,14.10
2018-06-03T21:19:56.939Z,16.13
2018-06-03T21:22:24.719Z,14.13
2018-06-03T21:24:52.494Z,14.30
2018-06-03T21:27:20.276Z,15.30
2018-06-03T21:29:48.062Z,16.37
2018-06-03T21:32:15.732Z,15.33
2018-06-03T21:34:43.525Z,14.70
2018-06-03T21:37:11.388Z,15.00
2018-06-03T21:39:39.185Z,11.77
2018-06-03T21:42:06.978Z,13.23
2018-06-03T21:44:35.227Z,13.67
2018-06-03T21:47:03.018Z,14.30
2018-06-03T21:49:31.518Z,13.70
2018-06-03T21:51:59.336Z,14.17
2018-06-03T21:54:27.215Z,14.10
2018-06-03T21:56:56.183Z,14.10
2018-06-03T21:59:23.979Z,15.57
2018-06-03T22:01:51.751Z,16.03
2018-06-03T22:04:19.411Z,15.33
2018-06-03T22:06:47.239Z,14.37
2018-06-03T22:09:15.157Z,14.27
2018-06-03T22:11:42.949Z,16.30
2018-06-03T22:14:10.816Z,14.53
2018-06-03T22:16:38.618Z,14.10
2018-06-03T22:19:06.406Z,15.90
2018-06-03T22:21:34.204Z,15.03
2018-06-03T22:24:02.000Z,15.63
2018-06-03T22:26:29.795Z,15.63
2018-06-03T22:28:57.634Z,16.67
2018-06-03T22:31:25.438Z,16.83
2018-06-03T22:33:53.231Z,17.20
2018-06-03T22:36:21.025Z,17.70
2018-06-03T22:38:48.829Z,17.33
2018-06-03T22:41:16.656Z,17.10
2018-06-03T22:43:44.508Z,16.90
2018-06-03T22:46:13.283Z,16.83
2018-06-03T22:48:41.090Z,15.57
2018-06-03T22:51:08.919Z,16.60
2018-06-03T22:53:36.714Z,15.90
2018-06-03T22:56:04.542Z,16.10
2018-06-03T22:58:32.340Z,16.00
2018-06-03T23:01:00.135Z,17.30
2018-06-03T23:03:27.914Z,17.90
2018-06-03T23:05:55.720Z,15.97
2018-06-03T23:08:23.635Z,19.07
2018-06-03T23:10:51.426Z,16.43
2018-06-03T23:13:19.211Z,16.70
2018-06-03T23:15:47.006Z,17.37
2018-06-03T23:18:14.838Z,18.30
2018-06-03T23:20:42.809Z,16.73
2018-06-03T23:23:11.236Z,14.60
2018-06-03T23:25:39.074Z,15.33
2018-06-03T23:28:06.867Z,13.73
2018-06-03T23:30:34.673Z,15.40
2018-06-03T23:33:02.348Z,15.43
2018-06-03T23:35:30.188Z,16.20
2018-06-03T23:37:57.846Z,16.97
2018-06-03T23:40:25.493Z,18.27
2018-06-03T23:42:53.303Z,16.10
2018-06-03T23:45:21.172Z,14.90
2018-06-03T23:47:48.965Z,14.70
2018-06-03T23:50:16.743Z,13.60
2018-06-03T23:52:44.543Z,13.60
2018-06-03T23:55:12.335Z,16.70
2018-06-03T23:57:40.796Z,16.00
